createdAt,value
2017-04-11T00:00:47.210Z,29
2017-04-11T00:01:45.641Z,29
2017-04-11T00:02:45.837Z,29
2017-04-11T00:03:45.694Z,29
2017-04-11T00:04:47.435Z,29
2017-04-11T00:05:46.202Z,29
2017-04-11T00:06:45.886Z,29
2017-04-11T00:07:47.627Z,29
2017-04-11T00:08:45.934Z,29
2017-04-11T00:09:47.577Z,29
2017-04-11T00:10:46.068Z,29
2017-04-11T00:11:47.888Z,29
2017-04-11T00:12:47.763Z,29
2017-04-11T00:13:46.191Z,29
2017-04-11T00:14:47.745Z,29
2017-04-11T00:15:46.321Z,29
2017-04-11T00:16:46.413Z,29
2017-04-11T00:17:48.149Z,29
2017-04-11T00:18:48.034Z,29
2017-04-11T00:19:48.019Z,29
2017-04-11T00:20:48.025Z,29
2017-04-11T00:21:48.024Z,29
2017-04-11T00:22:48.249Z,29
2017-04-11T00:23:48.621Z,29
2017-04-11T00:24:46.677Z,29
2017-04-11T00:25:46.917Z,29
2017-04-11T00:26:48.460Z,29
2017-04-11T00:27:46.918Z,29
2017-04-11T00:28:47.061Z,29
2017-04-11T00:29:47.219Z,29
2017-04-11T00:30:47.076Z,29
2017-04-11T00:31:48.748Z,29
2017-04-11T00:32:47.262Z,29
2017-04-11T00:33:48.802Z,29
2017-04-11T00:34:48.923Z,29
2017-04-11T00:35:49.253Z,29
2017-04-11T00:36:49.072Z,29
2017-04-11T00:37:49.087Z,29
2017-04-11T00:38:47.461Z,29
2017-04-11T00:39:47.619Z,29
2017-04-11T00:40:47.701Z,29
2017-04-11T00:41:49.541Z,29
2017-04-11T00:42:47.674Z,29
2017-04-11T00:43:47.755Z,29
2017-04-11T00:44:47.944Z,29
2017-04-11T00:45:49.502Z,29
2017-04-11T00:46:47.869Z,29
2017-04-11T00:47:49.931Z,29
2017-04-11T00:48:49.560Z,29
2017-04-11T00:49:49.723Z,29
2017-04-11T00:50:49.803Z,29
2017-04-11T00:51:48.302Z,29
2017-04-11T00:52:49.985Z,29
2017-04-11T00:53:50.284Z,29
2017-04-11T00:54:48.476Z,29
2017-04-11T00:55:50.102Z,29
2017-04-11T00:56:48.452Z,29
2017-04-11T00:57:50.302Z,29
2017-04-11T00:58:48.703Z,29
2017-04-11T00:59:48.881Z,29
2017-04-11T01:00:48.585Z,29
2017-04-11T01:01:48.764Z,29
2017-04-11T01:02:50.361Z,29
2017-04-11T01:03:48.939Z,29
2017-04-11T01:04:50.535Z,29
2017-04-11T01:05:49.120Z,29
2017-04-11T01:06:48.984Z,29
2017-04-11T01:07:50.507Z,29
2017-04-11T01:08:49.141Z,29
2017-04-11T01:09:49.017Z,29
2017-04-11T01:10:50.797Z,29
2017-04-11T01:11:51.093Z,29
2017-04-11T01:12:49.347Z,29
2017-04-11T01:13:50.852Z,29
2017-04-11T01:14:51.022Z,29
2017-04-11T01:15:50.963Z,29
2017-04-11T01:16:50.993Z,29
2017-04-11T01:17:49.901Z,29
2017-04-11T01:18:49.593Z,29
2017-04-11T01:19:49.698Z,29
2017-04-11T01:20:49.573Z,29
2017-04-11T01:21:51.302Z,29
2017-04-11T01:22:49.846Z,29
2017-04-11T01:23:51.643Z,29
2017-04-11T01:24:49.972Z,29
2017-04-11T01:25:51.453Z,29
2017-04-11T01:26:51.592Z,29
2017-04-11T01:27:49.968Z,29
2017-04-11T01:28:50.012Z,29
2017-04-11T01:29:52.081Z,29
2017-04-11T01:30:50.039Z,29
2017-04-11T01:31:51.884Z,29
2017-04-11T01:32:51.964Z,29
2017-04-11T01:33:50.345Z,29
2017-04-11T01:34:50.543Z,29
2017-04-11T01:35:50.671Z,29
2017-04-11T01:36:52.200Z,29
2017-04-11T01:37:50.553Z,29
2017-04-11T01:38:50.725Z,29
2017-04-11T01:39:50.733Z,29
2017-04-11T01:40:50.603Z,28.9
2017-04-11T01:41:51.002Z,29
2017-04-11T01:42:52.254Z,29
2017-04-11T01:43:50.881Z,28.9
2017-04-11T01:44:50.879Z,29
2017-04-11T01:45:52.360Z,29
2017-04-11T01:46:50.829Z,28.9
2017-04-11T01:47:51.297Z,29
2017-04-11T01:48:52.662Z,29
2017-04-11T01:49:51.008Z,29
2017-04-11T01:50:52.830Z,29
2017-04-11T01:51:51.225Z,29
2017-04-11T01:52:51.390Z,29
2017-04-11T01:53:53.221Z,29
2017-04-11T01:54:53.005Z,29
2017-04-11T01:55:51.365Z,29
2017-04-11T01:56:53.117Z,29
2017-04-11T01:57:53.035Z,29
2017-04-11T01:58:53.210Z,29
2017-04-11T01:59:53.507Z,29
2017-04-11T02:00:53.183Z,29
2017-04-11T02:01:53.204Z,29
2017-04-11T02:02:53.269Z,29
2017-04-11T02:03:51.707Z,28.9
2017-04-11T02:04:51.914Z,28.9
2017-04-11T02:05:52.233Z,29
2017-04-11T02:06:51.933Z,29
2017-04-11T02:07:53.437Z,28.9
2017-04-11T02:08:53.489Z,29
2017-04-11T02:09:53.643Z,29
2017-04-11T02:10:52.160Z,29
2017-04-11T02:11:52.420Z,28.9
2017-04-11T02:12:52.209Z,28.9
2017-04-11T02:13:52.327Z,28.9
2017-04-11T02:14:52.359Z,28.9
2017-04-11T02:15:53.946Z,29
2017-04-11T02:16:53.908Z,29
2017-04-11T02:17:52.604Z,29
2017-04-11T02:18:52.408Z,28.9
2017-04-11T02:19:54.118Z,29
2017-04-11T02:20:54.088Z,29
2017-04-11T02:21:52.640Z,28.9
2017-04-11T02:22:54.349Z,29
2017-04-11T02:23:53.073Z,28.9
2017-04-11T02:24:54.394Z,29
2017-04-11T02:25:54.413Z,28.9
2017-04-11T02:26:54.404Z,29
2017-04-11T02:27:54.388Z,29
2017-04-11T02:28:52.985Z,29
2017-04-11T02:29:53.331Z,29
2017-04-11T02:30:52.882Z,28.9
2017-04-11T02:31:53.108Z,28.9
2017-04-11T02:32:54.685Z,28.9
2017-04-11T02:33:54.763Z,29
2017-04-11T02:34:54.797Z,29
2017-04-11T02:35:55.209Z,29
2017-04-11T02:36:55.006Z,29
2017-04-11T02:37:53.335Z,28.9
2017-04-11T02:38:53.368Z,28.9
2017-04-11T02:39:55.098Z,28.9
2017-04-11T02:40:55.162Z,28.9
2017-04-11T02:41:53.955Z,28.9
2017-04-11T02:42:53.640Z,28.9
2017-04-11T02:43:55.382Z,28.9
2017-04-11T02:44:53.839Z,28.9
2017-04-11T02:45:53.697Z,28.9
2017-04-11T02:46:53.854Z,28.9
2017-04-11T02:47:54.180Z,28.9
2017-04-11T02:48:55.467Z,28.9
2017-04-11T02:49:55.598Z,28.9
2017-04-11T02:50:56.081Z,28.9
2017-04-11T02:51:53.989Z,28.9
2017-04-11T02:52:55.697Z,28.9
2017-04-11T02:53:56.009Z,28.9
2017-04-11T02:54:55.789Z,28.9
2017-04-11T02:55:55.830Z,28.9
2017-04-11T02:56:55.968Z,28.9
2017-04-11T02:57:54.354Z,28.9
2017-04-11T02:58:54.378Z,28.9
2017-04-11T02:59:56.286Z,28.9
2017-04-11T03:00:56.095Z,28.9
2017-04-11T03:01:56.106Z,28.9
2017-04-11T03:02:54.709Z,28.9
2017-04-11T03:03:54.635Z,28.9
2017-04-11T03:04:56.369Z,28.9
2017-04-11T03:05:56.730Z,28.9
2017-04-11T03:06:56.382Z,28.9
2017-04-11T03:07:54.809Z,28.9
2017-04-11T03:08:56.417Z,28.9
2017-04-11T03:09:56.481Z,28.9
2017-04-11T03:10:56.449Z,28.9
2017-04-11T03:11:56.900Z,28.9
2017-04-11T03:12:54.961Z,28.9
2017-04-11T03:13:56.609Z,28.9
2017-04-11T03:14:56.593Z,28.9
2017-04-11T03:15:55.217Z,28.9
2017-04-11T03:16:55.076Z,28.9
2017-04-11T03:17:57.083Z,28.9
2017-04-11T03:18:56.755Z,28.9
2017-04-11T03:19:56.926Z,28.9
2017-04-11T03:20:55.425Z,28.9
2017-04-11T03:21:57.548Z,28.9
2017-04-11T03:22:55.647Z,28.9
2017-04-11T03:23:55.970Z,28.9
2017-04-11T03:24:57.168Z,28.9
2017-04-11T03:25:57.192Z,28.9
2017-04-11T03:26:55.638Z,28.9
2017-04-11T03:27:55.877Z,28.9
2017-04-11T03:28:57.559Z,28.9
2017-04-11T03:29:57.845Z,28.9
2017-04-11T03:30:57.620Z,28.9
2017-04-11T03:31:55.997Z,28.9
2017-04-11T03:32:56.127Z,28.9
2017-04-11T03:33:56.362Z,28.9
2017-04-11T03:34:57.845Z,28.9
2017-04-11T03:35:56.541Z,28.9
2017-04-11T03:36:56.368Z,28.9
2017-04-11T03:37:56.367Z,28.9
2017-04-11T03:38:57.997Z,28.9
2017-04-11T03:39:58.061Z,28.9
2017-04-11T03:40:56.531Z,28.9
2017-04-11T03:41:58.427Z,28.9
2017-04-11T03:42:56.598Z,28.9
2017-04-11T03:43:58.279Z,28.9
2017-04-11T03:44:56.857Z,28.9
2017-04-11T03:45:58.316Z,28.9
2017-04-11T03:46:58.345Z,28.9
2017-04-11T03:47:57.261Z,28.9
2017-04-11T03:48:58.464Z,28.9
2017-04-11T03:49:56.870Z,28.9
2017-04-11T03:50:57.035Z,28.9
2017-04-11T03:51:58.625Z,28.9
2017-04-11T03:52:58.587Z,28.9
2017-04-11T03:53:57.311Z,28.9
2017-04-11T03:54:57.042Z,28.9
2017-04-11T03:55:57.205Z,28.9
2017-04-11T03:56:58.751Z,28.9
2017-04-11T03:57:57.097Z,28.9
2017-04-11T03:58:57.200Z,28.9
2017-04-11T03:59:59.138Z,28.9
2017-04-11T04:00:58.967Z,28.8
2017-04-11T04:01:58.994Z,28.9
2017-04-11T04:02:57.459Z,28.9
2017-04-11T04:03:59.073Z,28.9
2017-04-11T04:04:57.516Z,28.9
2017-04-11T04:05:57.970Z,28.9
2017-04-11T04:06:57.613Z,28.9
2017-04-11T04:07:57.945Z,28.9
2017-04-11T04:08:57.840Z,28.9
2017-04-11T04:09:58.030Z,28.9
2017-04-11T04:10:59.605Z,28.9
2017-04-11T04:11:59.841Z,28.9
2017-04-11T04:12:58.230Z,28.9
2017-04-11T04:13:59.830Z,28.9
2017-04-11T04:14:59.873Z,28.9
2017-04-11T04:15:59.742Z,28.9
2017-04-11T04:16:59.777Z,28.9
2017-04-11T04:17:58.650Z,28.9
2017-04-11T04:18:59.999Z,28.9
2017-04-11T04:19:58.538Z,28.9
2017-04-11T04:21:00.150Z,28.9
2017-04-11T04:22:00.181Z,28.9
2017-04-11T04:23:00.287Z,28.9
2017-04-11T04:23:58.943Z,28.9
2017-04-11T04:25:00.339Z,28.9
2017-04-11T04:25:58.704Z,28.9
2017-04-11T04:27:00.417Z,28.9
2017-04-11T04:27:58.797Z,28.9
2017-04-11T04:29:00.544Z,28.9
2017-04-11T04:29:59.168Z,28.8
2017-04-11T04:30:59.126Z,28.9
2017-04-11T04:31:59.218Z,28.9
2017-04-11T04:33:00.692Z,28.9
2017-04-11T04:34:00.863Z,28.9
2017-04-11T04:34:59.132Z,28.8
2017-04-11T04:35:59.656Z,28.9
2017-04-11T04:37:00.948Z,28.9
2017-04-11T04:38:00.898Z,28.9
2017-04-11T04:38:59.421Z,28.9
2017-04-11T04:39:59.304Z,28.9
2017-04-11T04:40:59.488Z,28.9
2017-04-11T04:42:01.266Z,28.9
2017-04-11T04:43:01.106Z,28.9
2017-04-11T04:44:01.079Z,28.9
2017-04-11T04:45:01.130Z,28.9
2017-04-11T04:46:01.160Z,28.9
2017-04-11T04:46:59.724Z,28.8
2017-04-11T04:48:01.569Z,28.9
2017-04-11T04:48:59.712Z,28.9
2017-04-11T04:49:59.930Z,28.9
2017-04-11T04:51:01.441Z,28.8
2017-04-11T04:52:00.052Z,28.9
2017-04-11T04:53:00.072Z,28.9
2017-04-11T04:54:01.847Z,28.9
2017-04-11T04:55:00.072Z,28.9
2017-04-11T04:56:00.249Z,28.9
2017-04-11T04:57:01.826Z,28.9
2017-04-11T04:58:00.323Z,28.9
2017-04-11T04:59:00.219Z,28.9
2017-04-11T05:00:01.359Z,28.9
2017-04-11T05:01:00.345Z,29
2017-04-11T05:02:00.367Z,29
2017-04-11T05:03:02.098Z,29
2017-04-11T05:04:02.175Z,29
2017-04-11T05:05:00.614Z,29
2017-04-11T05:06:02.512Z,29.1
2017-04-11T05:07:02.161Z,29.1
2017-04-11T05:08:00.595Z,29.1
2017-04-11T05:09:02.253Z,29.1
2017-04-11T05:10:02.335Z,29.1
2017-04-11T05:11:00.810Z,29.1
2017-04-11T05:12:01.265Z,29.1
2017-04-11T05:13:01.106Z,29.1
2017-04-11T05:14:00.972Z,29.2
2017-04-11T05:15:02.601Z,29.2
2017-04-11T05:16:01.041Z,29.2
2017-04-11T05:17:02.664Z,29.2
2017-04-11T05:18:01.586Z,29.2
2017-04-11T05:19:01.304Z,29.2
2017-04-11T05:20:02.808Z,29.2
2017-04-11T05:21:02.839Z,29.2
2017-04-11T05:22:02.977Z,29.2
2017-04-11T05:23:03.135Z,29.2
2017-04-11T05:24:01.851Z,29.2
2017-04-11T05:25:01.519Z,29.2
2017-04-11T05:26:01.507Z,29.3
2017-04-11T05:27:03.332Z,29.3
2017-04-11T05:28:03.366Z,29.3
2017-04-11T05:29:03.506Z,29.2
2017-04-11T05:30:03.885Z,29.3
2017-04-11T05:31:01.888Z,29.3
2017-04-11T05:32:02.099Z,29.3
2017-04-11T05:33:03.698Z,29.3
2017-04-11T05:34:02.138Z,29.3
2017-04-11T05:35:03.747Z,29.3
2017-04-11T05:36:03.868Z,29.3
2017-04-11T05:37:03.836Z,29.3
2017-04-11T05:38:02.280Z,29.3
2017-04-11T05:39:03.015Z,29.3
2017-04-11T05:40:03.980Z,29.3
2017-04-11T05:41:04.000Z,29.3
2017-04-11T05:42:04.344Z,29.4
2017-04-11T05:43:02.586Z,29.4
2017-04-11T05:44:04.751Z,29.4
2017-04-11T05:45:04.253Z,29.4
2017-04-11T05:46:02.568Z,29.4
2017-04-11T05:47:04.393Z,29.4
2017-04-11T05:48:02.974Z,29.4
2017-04-11T05:49:04.984Z,29.4
2017-04-11T05:50:02.772Z,29.4
2017-04-11T05:51:02.854Z,29.4
2017-04-11T05:52:04.636Z,29.5
2017-04-11T05:53:04.713Z,29.5
2017-04-11T05:54:03.554Z,29.5
2017-04-11T05:55:03.140Z,29.5
2017-04-11T05:56:03.308Z,29.5
2017-04-11T05:57:03.384Z,29.5
2017-04-11T05:58:05.019Z,29.5
2017-04-11T05:59:03.644Z,29.6
2017-04-11T06:00:05.414Z,29.6
2017-04-11T06:01:05.059Z,29.6
2017-04-11T06:02:05.111Z,29.6
2017-04-11T06:03:03.512Z,29.6
2017-04-11T06:04:03.775Z,29.6
2017-04-11T06:05:03.697Z,29.6
2017-04-11T06:06:06.170Z,29.7
2017-04-11T06:07:05.337Z,29.7
2017-04-11T06:08:04.470Z,29.7
2017-04-11T06:09:03.997Z,29.7
2017-04-11T06:10:05.546Z,29.7
2017-04-11T06:11:05.752Z,29.7
2017-04-11T06:12:06.512Z,29.7
2017-04-11T06:13:04.158Z,29.7
2017-04-11T06:14:05.853Z,29.7
2017-04-11T06:15:06.508Z,29.7
2017-04-11T06:16:05.800Z,29.6
2017-04-11T06:17:05.940Z,29.7
2017-04-11T06:18:04.731Z,29.7
2017-04-11T06:19:06.013Z,29.7
2017-04-11T06:20:06.786Z,29.7
2017-04-11T06:21:06.113Z,29.6
2017-04-11T06:22:04.543Z,29.7
2017-04-11T06:23:05.393Z,29.7
2017-04-11T06:24:07.037Z,29.7
2017-04-11T06:25:07.440Z,29.7
2017-04-11T06:26:04.869Z,29.7
2017-04-11T06:27:04.907Z,29.7
2017-04-11T06:28:04.888Z,29.7
2017-04-11T06:29:06.562Z,29.6
2017-04-11T06:30:05.359Z,29.7
2017-04-11T06:31:08.618Z,29.7
2017-04-11T06:32:08.011Z,29.7
2017-04-11T06:33:08.977Z,29.6
2017-04-11T06:34:09.478Z,29.6
2017-04-11T06:35:08.389Z,29.6
2017-04-11T06:36:09.780Z,29.6
2017-04-11T06:37:07.201Z,29.6
2017-04-11T06:38:06.999Z,29.6
2017-04-11T06:39:07.206Z,29.6
2017-04-11T06:40:07.421Z,29.5
2017-04-11T06:41:05.657Z,29.3
2017-04-11T06:42:07.280Z,29.1
2017-04-11T06:43:06.773Z,29
2017-04-11T06:44:08.888Z,28.7
2017-04-11T06:45:06.759Z,28.6
2017-04-11T06:46:08.336Z,28.4
2017-04-11T06:47:07.665Z,28.2
2017-04-11T06:48:08.712Z,28
2017-04-11T06:49:10.524Z,27.9
2017-04-11T06:50:08.898Z,27.7
2017-04-11T06:51:09.195Z,27.6
2017-04-11T06:52:06.574Z,27.5
2017-04-11T06:53:07.440Z,27.5
2017-04-11T06:54:08.997Z,27.5
2017-04-11T06:55:08.871Z,27.4
2017-04-11T06:56:09.498Z,27.3
2017-04-11T06:57:07.293Z,27.3
2017-04-11T06:58:08.867Z,27.2
2017-04-11T06:59:08.723Z,27.2
2017-04-11T07:00:06.933Z,27.1
2017-04-11T07:01:09.711Z,27.1
2017-04-11T07:02:08.693Z,27
2017-04-11T07:03:09.331Z,27
2017-04-11T07:04:08.698Z,26.9
2017-04-11T07:05:08.966Z,26.9
2017-04-11T07:06:07.776Z,26.8
2017-04-11T07:07:07.072Z,26.7
2017-04-11T07:08:07.172Z,26.6
2017-04-11T07:09:08.772Z,26.6
2017-04-11T07:10:07.154Z,26.5
2017-04-11T07:11:08.119Z,26.5
2017-04-11T07:12:07.304Z,26.5
2017-04-11T07:13:09.596Z,26.4
2017-04-11T07:14:08.205Z,26.4
2017-04-11T07:15:09.142Z,26.3
2017-04-11T07:16:07.616Z,26.3
2017-04-11T07:17:09.550Z,26.3
2017-04-11T07:18:09.339Z,26.3
2017-04-11T07:19:07.677Z,26.2
2017-04-11T07:20:10.160Z,26.2
2017-04-11T07:21:10.247Z,26.1
2017-04-11T07:22:08.555Z,26.1
2017-04-11T07:23:11.711Z,26.1
2017-04-11T07:24:13.876Z,26
2017-04-11T07:25:12.459Z,26
2017-04-11T07:26:11.175Z,26
2017-04-11T07:27:11.978Z,26
2017-04-11T07:28:09.814Z,25.9
2017-04-11T07:29:12.649Z,25.9
2017-04-11T07:30:09.685Z,25.9
2017-04-11T07:31:10.600Z,25.9
2017-04-11T07:32:11.941Z,25.8
2017-04-11T07:33:11.373Z,25.8
2017-04-11T07:34:10.429Z,25.8
2017-04-11T07:35:12.095Z,25.8
2017-04-11T07:36:09.986Z,25.8
2017-04-11T07:37:09.773Z,25.8
2017-04-11T07:40:47.542Z,25.6
2017-04-11T07:41:45.917Z,25.6
2017-04-11T07:42:46.579Z,25.6
2017-04-11T07:43:46.936Z,25.6
2017-04-11T07:44:47.371Z,25.6
2017-04-11T07:45:48.406Z,25.6
2017-04-11T07:46:48.222Z,25.5
2017-04-11T07:47:46.180Z,25.5
2017-04-11T07:48:46.378Z,25.5
2017-04-11T07:49:48.609Z,25.5
2017-04-11T07:50:48.948Z,25.4
2017-04-11T07:51:47.676Z,25.3
2017-04-11T07:52:46.925Z,25.2
2017-04-11T07:53:48.031Z,25.2
2017-04-11T07:54:48.825Z,25.2
2017-04-11T07:55:47.334Z,25.1
2017-04-11T07:56:47.299Z,25.1
2017-04-11T07:57:48.064Z,25.1
2017-04-11T07:58:47.175Z,25.2
2017-04-11T07:59:49.657Z,25.2
2017-04-11T08:00:48.570Z,25.2
2017-04-11T08:01:49.348Z,25.2
2017-04-11T08:02:49.095Z,25.3
2017-04-11T08:03:47.805Z,25.3
2017-04-11T08:04:51.687Z,25.3
2017-04-11T08:05:49.532Z,25.4
2017-04-11T08:06:49.932Z,25.5
2017-04-11T08:07:51.055Z,25.6
2017-04-11T08:08:48.784Z,25.6
2017-04-11T08:09:51.303Z,25.7
2017-04-11T08:10:49.412Z,25.8
2017-04-11T08:11:48.023Z,25.8
2017-04-11T08:12:49.710Z,25.9
2017-04-11T08:13:50.660Z,25.9
2017-04-11T08:14:52.352Z,26
2017-04-11T08:15:50.079Z,26
2017-04-11T08:16:50.353Z,25.9
2017-04-11T08:17:48.505Z,25.9
2017-04-11T08:18:49.415Z,25.9
2017-04-11T08:19:50.986Z,25.9
2017-04-11T08:20:51.734Z,25.9
2017-04-11T08:21:51.115Z,26
2017-04-11T08:22:52.238Z,26
2017-04-11T08:23:55.558Z,26
2017-04-11T08:24:54.238Z,26
2017-04-11T08:25:49.918Z,26.1
2017-04-11T08:26:50.345Z,26.1
2017-04-11T08:27:49.075Z,26.3
2017-04-11T08:28:51.563Z,26.4
2017-04-11T08:29:51.671Z,26.6
2017-04-11T08:30:53.337Z,26.7
2017-04-11T08:31:55.841Z,26.9
2017-04-11T08:32:52.004Z,27.1
2017-04-11T08:33:53.530Z,27.4
2017-04-11T08:34:58.390Z,27.5
2017-04-11T08:35:52.748Z,27.7
2017-04-11T08:36:51.569Z,27.9
2017-04-11T08:37:50.349Z,28
2017-04-11T08:38:54.059Z,28.1
2017-04-11T08:39:51.554Z,28.3
2017-04-11T08:40:51.781Z,28.4
2017-04-11T08:41:52.939Z,28.4
2017-04-11T08:42:50.386Z,28.5
2017-04-11T08:43:50.738Z,28.6
2017-04-11T08:44:49.201Z,28.7
2017-04-11T08:45:54.341Z,28.8
2017-04-11T08:46:51.239Z,28.9
2017-04-11T08:47:51.460Z,28.9
2017-04-11T08:48:49.403Z,29
2017-04-11T08:49:52.537Z,29
2017-04-11T08:50:50.923Z,29.1
2017-04-11T08:51:53.433Z,29.1
2017-04-11T08:52:52.715Z,29.2
2017-04-11T08:53:49.662Z,29.3
2017-04-11T08:54:52.890Z,29.3
2017-04-11T08:55:55.137Z,29.4
2017-04-11T08:56:55.266Z,29.5
2017-04-11T08:57:51.885Z,29.5
2017-04-11T08:58:55.727Z,29.6
2017-04-11T08:59:55.113Z,29.6
2017-04-11T09:00:52.941Z,29.7
2017-04-11T09:01:54.917Z,29.8
2017-04-11T09:02:52.233Z,29.8
2017-04-11T09:03:58.833Z,29.9
2017-04-11T09:04:52.517Z,30
2017-04-11T09:05:53.491Z,30
2017-04-11T09:06:51.499Z,30
2017-04-11T09:07:51.480Z,30.1
2017-04-11T09:08:52.908Z,30.1
2017-04-11T09:09:52.036Z,30.1
2017-04-11T09:10:52.976Z,30.2
2017-04-11T09:11:55.083Z,30.2
2017-04-11T09:12:53.464Z,30.3
2017-04-11T09:13:53.469Z,30.4
2017-04-11T09:14:55.135Z,30.4
2017-04-11T09:15:51.911Z,30.4
2017-04-11T09:18:00.742Z,30.4
2017-04-11T09:18:55.894Z,30.4
2017-04-11T09:19:55.847Z,30.4
2017-04-11T09:20:54.399Z,30.4
2017-04-11T09:21:55.936Z,30.4
2017-04-11T09:22:55.796Z,30.4
2017-04-11T09:23:55.144Z,30.4
2017-04-11T09:24:54.245Z,30.4
2017-04-11T09:25:56.188Z,30.3
2017-04-11T09:26:54.531Z,30.3
2017-04-11T09:27:56.094Z,30.3
2017-04-11T09:28:56.145Z,30.3
2017-04-11T09:29:56.423Z,30.3
2017-04-11T09:30:55.702Z,30.3
2017-04-11T09:31:56.258Z,30.3
2017-04-11T09:32:56.348Z,30.4
2017-04-11T09:33:56.394Z,30.3
2017-04-11T09:34:54.565Z,30.3
2017-04-11T09:35:56.400Z,30.3
2017-04-11T09:36:54.572Z,30.3
2017-04-11T09:37:56.419Z,30.4
2017-04-11T09:38:57.873Z,30.3
2017-04-11T09:39:57.296Z,30.4
2017-04-11T09:40:56.277Z,30.4
2017-04-11T09:41:55.304Z,30.4
2017-04-11T09:42:55.577Z,30.4
2017-04-11T09:43:55.170Z,30.4
2017-04-11T09:44:57.003Z,30.4
2017-04-11T09:45:56.356Z,30.5
2017-04-11T09:46:55.340Z,30.5
2017-04-11T09:47:56.556Z,30.5
2017-04-11T09:48:58.298Z,30.6
2017-04-11T09:49:58.294Z,30.6
2017-04-11T09:50:56.377Z,30.6
2017-04-11T09:52:00.892Z,30.6
2017-04-11T09:52:56.869Z,30.7
2017-04-11T09:54:02.388Z,30.7
2017-04-11T09:54:58.165Z,30.8
2017-04-11T09:55:59.139Z,30.8
2017-04-11T09:57:00.083Z,30.9
2017-04-11T09:58:02.270Z,30.9
2017-04-11T09:58:58.331Z,31
2017-04-11T09:59:58.672Z,31
2017-04-11T10:00:57.988Z,31.1
2017-04-11T10:02:01.103Z,31.2
2017-04-11T10:03:02.501Z,31.2
2017-04-11T10:04:01.241Z,31.3
2017-04-11T10:04:59.532Z,31.4
2017-04-11T10:05:59.732Z,31.4
2017-04-11T10:06:59.211Z,31.4
2017-04-11T10:08:00.506Z,31.4
2017-04-11T10:09:01.045Z,31.4
2017-04-11T10:09:57.677Z,31.4
2017-04-11T10:11:04.465Z,31.4
2017-04-11T10:11:58.345Z,31.4
2017-04-11T10:13:03.196Z,31.5
2017-04-11T10:14:06.224Z,31.5
2017-04-11T10:15:01.466Z,31.5
2017-04-11T10:15:58.276Z,31.6
2017-04-11T10:17:00.548Z,31.6
2017-04-11T10:17:59.316Z,31.7
2017-04-11T10:18:57.833Z,31.8
2017-04-11T10:19:59.889Z,31.8
2017-04-11T10:20:58.417Z,31.8
2017-04-11T10:21:59.082Z,31.9
2017-04-11T10:23:00.800Z,31.9
2017-04-11T10:24:00.798Z,32
2017-04-11T10:25:01.351Z,32
2017-04-11T10:25:59.311Z,32
2017-04-11T10:27:00.171Z,32
2017-04-11T10:28:01.309Z,32
2017-04-11T10:29:01.377Z,32
2017-04-11T10:29:59.237Z,32
2017-04-11T10:30:59.765Z,32
2017-04-11T10:31:59.882Z,32
2017-04-11T10:32:58.482Z,32
2017-04-11T10:34:00.433Z,32
2017-04-11T10:35:03.809Z,32.1
2017-04-11T10:36:00.602Z,32.2
2017-04-11T10:37:57.274Z,32.3
2017-04-11T10:38:59.665Z,32.4
2017-04-11T10:39:57.688Z,32.4
2017-04-11T10:40:59.505Z,32.4
2017-04-11T10:41:57.772Z,32.2
2017-04-11T10:42:58.351Z,32.1
2017-04-11T10:43:57.859Z,32
2017-04-11T10:44:59.645Z,31.9
2017-04-11T10:45:56.279Z,31.8
2017-04-11T10:46:57.107Z,31.7
2017-04-11T10:47:55.677Z,31.7
2017-04-11T10:49:02.739Z,31.6
2017-04-11T10:49:57.977Z,31.7
2017-04-11T10:50:57.993Z,31.8
2017-04-11T10:51:55.817Z,32
2017-04-11T10:52:55.973Z,32.1
2017-04-11T10:53:57.732Z,32.2
2017-04-11T10:54:59.527Z,32.3
2017-04-11T10:56:05.322Z,32.5
2017-04-11T10:56:58.291Z,32.8
2017-04-11T10:57:59.289Z,33.2
2017-04-11T10:58:57.116Z,33.6
2017-04-11T10:59:57.932Z,34
2017-04-11T11:00:59.403Z,34.3
2017-04-11T11:01:56.960Z,34.9
2017-04-11T11:02:58.071Z,36
2017-04-11T11:03:59.104Z,36.9
2017-04-11T11:04:59.165Z,37.3
2017-04-11T11:05:59.911Z,37.2
2017-04-11T11:06:59.961Z,37.5
2017-04-11T11:07:56.450Z,37.5
2017-04-11T11:08:58.124Z,37.8
2017-04-11T11:09:56.520Z,38.4
2017-04-11T11:11:01.957Z,38.8
2017-04-11T11:11:56.833Z,38.9
2017-04-11T11:12:57.371Z,38.1
2017-04-11T11:13:56.977Z,37.2
2017-04-11T11:14:59.880Z,36.4
2017-04-11T11:15:58.493Z,35.7
2017-04-11T11:16:58.365Z,35.1
2017-04-11T11:17:59.118Z,34.5
2017-04-11T11:18:59.257Z,34.1
2017-04-11T11:19:57.812Z,33.7
2017-04-11T11:21:01.064Z,33.4
2017-04-11T11:21:59.755Z,33.1
2017-04-11T11:22:59.425Z,32.8
2017-04-11T11:24:01.034Z,32.6
2017-04-11T11:25:00.379Z,32.4
2017-04-11T11:25:58.251Z,32.2
2017-04-11T11:26:59.209Z,32.1
2017-04-11T11:27:58.279Z,31.9
2017-04-11T11:28:58.613Z,31.7
2017-04-11T11:29:57.751Z,31.5
2017-04-11T11:30:59.640Z,31.3
2017-04-11T11:31:59.369Z,31.1
2017-04-11T11:32:59.249Z,31.1
2017-04-11T11:33:59.658Z,31
2017-04-11T11:34:59.065Z,30.9
2017-04-11T11:36:00.130Z,30.7
2017-04-11T11:36:59.707Z,30.6
2017-04-11T11:37:58.287Z,30.5
2017-04-11T11:38:58.923Z,30.4
2017-04-11T11:39:59.240Z,30.3
2017-04-11T11:40:58.818Z,30.2
2017-04-11T11:42:00.143Z,30.1
2017-04-11T11:42:59.092Z,30.1
2017-04-11T11:43:59.868Z,30
2017-04-11T11:45:02.302Z,29.9
2017-04-11T11:45:59.309Z,29.8
2017-04-11T11:47:00.721Z,29.8
2017-04-11T11:48:01.594Z,29.7
2017-04-11T11:49:02.871Z,29.6
2017-04-11T11:50:03.067Z,29.6
2017-04-11T11:51:03.950Z,29.5
2017-04-11T11:52:01.835Z,29.5
2017-04-11T11:52:59.162Z,29.5
2017-04-11T11:54:01.489Z,29.5
2017-04-11T11:55:00.602Z,29.5
2017-04-11T11:56:00.765Z,29.6
2017-04-11T11:57:08.160Z,29.6
2017-04-11T11:58:01.506Z,29.6
2017-04-11T11:59:01.006Z,29.5
2017-04-11T11:59:59.262Z,29.5
2017-04-11T12:00:59.172Z,29.5
2017-04-11T12:01:59.355Z,29.5
2017-04-11T12:03:00.371Z,29.5
2017-04-11T12:04:02.056Z,29.5
2017-04-11T12:05:00.290Z,29.5
2017-04-11T12:06:00.683Z,29.5
2017-04-11T12:06:59.537Z,29.5
2017-04-11T12:07:59.640Z,29.4
2017-04-11T12:09:04.847Z,29.4
2017-04-11T12:10:02.752Z,29.3
2017-04-11T12:11:03.091Z,29.3
2017-04-11T12:12:03.586Z,29.3
2017-04-11T12:13:03.793Z,29.3
2017-04-11T12:14:02.996Z,29.3
2017-04-11T12:15:02.074Z,29.2
2017-04-11T12:16:01.523Z,29.2
2017-04-11T12:17:02.691Z,29.2
2017-04-11T12:18:03.808Z,29.1
2017-04-11T12:19:01.921Z,29.2
2017-04-11T12:20:02.894Z,29.1
2017-04-11T12:21:02.448Z,29.2
2017-04-11T12:22:02.950Z,29.2
2017-04-11T12:23:01.416Z,29.2
2017-04-11T12:24:00.371Z,29.2
2017-04-11T12:25:01.180Z,29.2
2017-04-11T12:26:01.182Z,29.2
2017-04-11T12:27:02.258Z,29.2
2017-04-11T12:28:02.943Z,29.2
2017-04-11T12:29:04.531Z,29.2
2017-04-11T12:30:03.579Z,29.2
2017-04-11T12:31:06.091Z,29.2
2017-04-11T12:32:04.675Z,29.2
2017-04-11T12:33:04.173Z,29.1
2017-04-11T12:34:01.808Z,29.1
2017-04-11T12:35:02.987Z,29.1
2017-04-11T12:36:01.277Z,29
2017-04-11T12:37:02.011Z,29
2017-04-11T12:38:01.308Z,28.9
2017-04-11T12:39:01.389Z,28.9
2017-04-11T12:40:04.374Z,28.8
2017-04-11T12:41:03.888Z,28.9
2017-04-11T12:42:02.901Z,28.8
2017-04-11T12:43:03.318Z,28.9
2017-04-11T12:44:03.828Z,28.8
2017-04-11T12:45:03.285Z,28.8
2017-04-11T12:46:01.823Z,28.8
2017-04-11T12:47:04.326Z,28.9
2017-04-11T12:48:05.906Z,28.9
2017-04-11T12:49:03.881Z,28.9
2017-04-11T12:50:01.942Z,28.9
2017-04-11T12:51:02.062Z,29
2017-04-11T12:52:05.746Z,29
2017-04-11T12:53:03.692Z,29
2017-04-11T12:54:03.810Z,29
2017-04-11T12:55:03.711Z,29
2017-04-11T12:56:06.354Z,29.1
2017-04-11T12:57:07.869Z,29.1
2017-04-11T12:58:02.556Z,29.1
2017-04-11T12:59:06.280Z,29.1
2017-04-11T13:00:04.908Z,29.1
2017-04-11T13:01:05.427Z,29.1
2017-04-11T13:02:05.936Z,29
2017-04-11T13:03:04.471Z,29
2017-04-11T13:04:05.736Z,28.9
2017-04-11T13:05:03.211Z,28.9
2017-04-11T13:06:04.315Z,28.9
2017-04-11T13:07:06.645Z,28.9
2017-04-11T13:08:07.767Z,28.9
2017-04-11T13:09:03.285Z,29
2017-04-11T13:10:05.225Z,29
2017-04-11T13:11:04.673Z,29
2017-04-11T13:12:10.307Z,29
2017-04-11T13:13:05.436Z,29
2017-04-11T13:14:05.809Z,29
2017-04-11T13:15:06.465Z,29
2017-04-11T13:16:04.164Z,29
2017-04-11T13:17:04.938Z,28.9
2017-04-11T13:18:03.608Z,28.8
2017-04-11T13:19:06.186Z,28.7
2017-04-11T13:20:04.550Z,28.6
2017-04-11T13:21:06.664Z,28.6
2017-04-11T13:22:04.596Z,28.5
2017-04-11T13:23:10.773Z,28.5
2017-04-11T13:24:08.986Z,28.5
2017-04-11T13:25:06.265Z,28.5
2017-04-11T13:26:07.324Z,28.5
2017-04-11T13:27:06.464Z,28.5
2017-04-11T13:28:06.461Z,28.5
2017-04-11T13:29:08.622Z,28.4
2017-04-11T13:30:06.317Z,28.4
2017-04-11T13:31:04.295Z,28.4
2017-04-11T13:32:08.526Z,28.4
2017-04-11T13:33:06.557Z,28.4
2017-04-11T13:34:04.949Z,28.4
2017-04-11T13:35:06.562Z,28.4
2017-04-11T13:36:09.081Z,28.4
2017-04-11T13:37:06.909Z,28.3